Terminal Aerodrome Forecast
Issued by NWS Grand Junction, CO

Home | Current Version | Previous Version | Text Only | Print | Product List | Glossary On
Versions: 1 2 3 4 5 6 7 8 9 10 11 12 13 14 15 16 17 18 19 20 21 22 23 24 25 26 27 28 29 30 31 32 33 34 35
000
FTUS45 KGJT 291722
TAFGJT
TAF
KGJT 291722Z 2918/3018 10005KT P6SM BKN090 BKN110
     FM292000 30006KT P6SM FEW090 SCT110
     FM300200 07004KT P6SM FEW110
     FM300600 11008KT P6SM SCT110 SCT250
     FM301400 16007KT P6SM SCT200=

USA.gov is the U.S. government's official web portal to all federal, state and local government web resources and services.